Terminal Aerodrome Forecast
Issued by NWS

Home | Current Version | Previous Version | Text Only | Print | Product List | Glossary On
Versions: 1 2 3 4 5 6 7 8 9 10 11 12 13 14 15 16 17 18 19 20 21 22 23 24 25 26 27 28 29 30 31 32
000
FTUS43 KLOT 242300
TAFMDW
TAF
KMDW 242320Z 2500/2524 20005KT P6SM SCT080 BKN250
     FM250400 21005KT P6SM BKN030
     FM250600 23004KT 4SM BR SCT007 OVC025
     FM251000 26006KT 5SM BR FEW010 BKN030
     FM251500 30009KT P6SM FEW250
     FM251900 30012G19KT P6SM FEW250=

USA.gov is the U.S. government's official web portal to all federal, state and local government web resources and services.